sensor_id;sensor_type;location;lat;lon;timestamp;temperature;humidity
27409;DHT22;20413;50.782;7.152;2022-12-20T00:01:27;11.40;99.90
27409;DHT22;20413;50.782;7.152;2022-12-20T00:03:57;11.40;99.90
27409;DHT22;20413;50.782;7.152;2022-12-20T00:06:24;11.50;99.90
27409;DHT22;20413;50.782;7.152;2022-12-20T00:09:00;11.60;99.90
27409;DHT22;20413;50.782;7.152;2022-12-20T00:11:28;11.50;99.90
27409;DHT22;20413;50.782;7.152;2022-12-20T00:13:54;11.60;99.90
27409;DHT22;20413;50.782;7.152;2022-12-20T00:16:22;11.70;99.90
27409;DHT22;20413;50.782;7.152;2022-12-20T00:18:51;11.70;99.90
27409;DHT22;20413;50.782;7.152;2022-12-20T00:21:18;11.80;99.90
27409;DHT22;20413;50.782;7.152;2022-12-20T00:23:44;11.90;99.90
27409;DHT22;20413;50.782;7.152;2022-12-20T00:26:13;12.00;99.90
27409;DHT22;20413;50.782;7.152;2022-12-20T00:28:40;11.90;99.90
27409;DHT22;20413;50.782;7.152;2022-12-20T00:31:07;11.90;99.90
27409;DHT22;20413;50.782;7.152;2022-12-20T00:33:35;11.80;99.90
27409;DHT22;20413;50.782;7.152;2022-12-20T00:36:01;11.90;99.90
27409;DHT22;20413;50.782;7.152;2022-12-20T00:38:27;11.90;99.90
27409;DHT22;20413;50.782;7.152;2022-12-20T00:41:04;11.90;99.90
27409;DHT22;20413;50.782;7.152;2022-12-20T00:43:31;11.90;99.90
27409;DHT22;20413;50.782;7.152;2022-12-20T00:45:58;11.90;99.90
27409;DHT22;20413;50.782;7.152;2022-12-20T00:48:24;11.90;99.90
27409;DHT22;20413;50.782;7.152;2022-12-20T00:50:50;11.80;99.90
27409;DHT22;20413;50.782;7.152;2022-12-20T00:53:16;11.70;99.90
27409;DHT22;20413;50.782;7.152;2022-12-20T00:55:43;11.20;99.90
27409;DHT22;20413;50.782;7.152;2022-12-20T00:58:09;10.80;99.90
27409;DHT22;20413;50.782;7.152;2022-12-20T01:00:36;10.50;99.90
27409;DHT22;20413;50.782;7.152;2022-12-20T01:03:02;10.20;99.90
27409;DHT22;20413;50.782;7.152;2022-12-20T01:05:28;10.00;99.90
27409;DHT22;20413;50.782;7.152;2022-12-20T01:08:00;9.70;99.90
27409;DHT22;20413;50.782;7.152;2022-12-20T01:10:28;9.60;99.90
27409;DHT22;20413;50.782;7.152;2022-12-20T01:12:54;9.50;99.90
27409;DHT22;20413;50.782;7.152;2022-12-20T01:15:20;9.60;99.90
27409;DHT22;20413;50.782;7.152;2022-12-20T01:17:46;9.50;99.90
27409;DHT22;20413;50.782;7.152;2022-12-20T01:20:12;9.40;99.90
27409;DHT22;20413;50.782;7.152;2022-12-20T01:22:41;9.30;99.90
27409;DHT22;20413;50.782;7.152;2022-12-20T01:25:07;9.30;99.90
27409;DHT22;20413;50.782;7.152;2022-12-20T01:27:32;9.30;99.90
27409;DHT22;20413;50.782;7.152;2022-12-20T01:29:58;9.20;99.90
27409;DHT22;20413;50.782;7.152;2022-12-20T01:32:23;9.30;99.90
27409;DHT22;20413;50.782;7.152;2022-12-20T01:34:53;9.30;99.90
27409;DHT22;20413;50.782;7.152;2022-12-20T01:37:18;9.30;99.90
27409;DHT22;20413;50.782;7.152;2022-12-20T01:39:44;9.30;99.90
27409;DHT22;20413;50.782;7.152;2022-12-20T01:42:13;9.30;99.90
27409;DHT22;20413;50.782;7.152;2022-12-20T01:47:08;9.30;99.90
27409;DHT22;20413;50.782;7.152;2022-12-20T01:49:39;9.20;99.90
27409;DHT22;20413;50.782;7.152;2022-12-20T01:54:45;9.20;99.90
27409;DHT22;20413;50.782;7.152;2022-12-20T01:57:17;9.10;99.90
27409;DHT22;20413;50.782;7.152;2022-12-20T01:59:45;9.00;99.90
27409;DHT22;20413;50.782;7.152;2022-12-20T02:02:12;8.90;99.90
27409;DHT22;20413;50.782;7.152;2022-12-20T02:04:38;8.90;99.90
27409;DHT22;20413;50.782;7.152;2022-12-20T02:07:04;8.90;99.90
27409;DHT22;20413;50.782;7.152;2022-12-20T02:09:33;8.90;99.90
27409;DHT22;20413;50.782;7.152;2022-12-20T02:12:14;8.80;99.90
27409;DHT22;20413;50.782;7.152;2022-12-20T02:31:33;9.00;99.90
27409;DHT22;20413;50.782;7.152;2022-12-20T02:34:02;9.00;99.90
27409;DHT22;20413;50.782;7.152;2022-12-20T02:36:27;9.10;99.90
27409;DHT22;20413;50.782;7.152;2022-12-20T02:38:53;9.20;99.90
27409;DHT22;20413;50.782;7.152;2022-12-20T02:41:23;9.20;99.90
27409;DHT22;20413;50.782;7.152;2022-12-20T02:43:55;9.20;99.90
27409;DHT22;20413;50.782;7.152;2022-12-20T02:46:41;9.20;99.90
27409;DHT22;20413;50.782;7.152;2022-12-20T02:49:11;9.30;99.90
27409;DHT22;20413;50.782;7.152;2022-12-20T02:51:41;9.30;99.90
27409;DHT22;20413;50.782;7.152;2022-12-20T02:54:08;9.50;99.90
27409;DHT22;20413;50.782;7.152;2022-12-20T02:56:39;9.60;99.90
27409;DHT22;20413;50.782;7.152;2022-12-20T02:59:59;9.70;99.90
27409;DHT22;20413;50.782;7.152;2022-12-20T03:02:05;9.70;99.90
27409;DHT22;20413;50.782;7.152;2022-12-20T03:04:36;9.80;99.90
27409;DHT22;20413;50.782;7.152;2022-12-20T03:07:11;9.70;99.90
27409;DHT22;20413;50.782;7.152;2022-12-20T03:09:42;9.80;99.90
27409;DHT22;20413;50.782;7.152;2022-12-20T03:12:10;9.70;99.90
27409;DHT22;20413;50.782;7.152;2022-12-20T03:14:37;9.70;99.90
27409;DHT22;20413;50.782;7.152;2022-12-20T03:17:04;9.70;99.90
27409;DHT22;20413;50.782;7.152;2022-12-20T03:19:30;9.80;99.90
27409;DHT22;20413;50.782;7.152;2022-12-20T03:21:56;9.60;99.90
27409;DHT22;20413;50.782;7.152;2022-12-20T03:24:22;9.60;99.90
27409;DHT22;20413;50.782;7.152;2022-12-20T03:26:47;9.60;99.90
27409;DHT22;20413;50.782;7.152;2022-12-20T03:29:13;9.60;99.90
27409;DHT22;20413;50.782;7.152;2022-12-20T03:31:38;9.60;99.90
27409;DHT22;20413;50.782;7.152;2022-12-20T03:34:04;9.60;99.90
27409;DHT22;20413;50.782;7.152;2022-12-20T03:36:30;9.50;99.90
27409;DHT22;20413;50.782;7.152;2022-12-20T03:38:56;9.50;99.90
27409;DHT22;20413;50.782;7.152;2022-12-20T03:41:22;9.40;99.90
27409;DHT22;20413;50.782;7.152;2022-12-20T03:43:48;9.50;99.90
27409;DHT22;20413;50.782;7.152;2022-12-20T03:46:14;9.50;99.90
27409;DHT22;20413;50.782;7.152;2022-12-20T03:48:40;9.50;99.90
27409;DHT22;20413;50.782;7.152;2022-12-20T03:51:06;9.50;99.90
27409;DHT22;20413;50.782;7.152;2022-12-20T03:53:34;9.50;99.90
27409;DHT22;20413;50.782;7.152;2022-12-20T03:56:00;9.50;99.90
27409;DHT22;20413;50.782;7.152;2022-12-20T03:58:25;9.60;99.90
27409;DHT22;20413;50.782;7.152;2022-12-20T04:00:51;9.70;99.90
27409;DHT22;20413;50.782;7.152;2022-12-20T04:03:17;9.70;99.90
27409;DHT22;20413;50.782;7.152;2022-12-20T04:05:42;9.60;99.90
27409;DHT22;20413;50.782;7.152;2022-12-20T04:08:08;9.60;99.90
27409;DHT22;20413;50.782;7.152;2022-12-20T04:10:33;9.50;99.90
27409;DHT22;20413;50.782;7.152;2022-12-20T04:13:22;9.60;99.90
27409;DHT22;20413;50.782;7.152;2022-12-20T04:15:48;9.60;99.90
27409;DHT22;20413;50.782;7.152;2022-12-20T04:18:16;9.60;99.90
27409;DHT22;20413;50.782;7.152;2022-12-20T04:20:42;9.60;99.90
27409;DHT22;20413;50.782;7.152;2022-12-20T04:23:07;9.50;99.90
27409;DHT22;20413;50.782;7.152;2022-12-20T04:25:36;9.40;99.90
27409;DHT22;20413;50.782;7.152;2022-12-20T04:28:02;9.40;99.90
27409;DHT22;20413;50.782;7.152;2022-12-20T04:30:27;9.40;99.90
27409;DHT22;20413;50.782;7.152;2022-12-20T04:32:53;9.40;99.90
27409;DHT22;20413;50.782;7.152;2022-12-20T04:35:19;9.40;99.90
27409;DHT22;20413;50.782;7.152;2022-12-20T04:37:45;9.40;99.90
27409;DHT22;20413;50.782;7.152;2022-12-20T04:40:12;9.40;99.90
27409;DHT22;20413;50.782;7.152;2022-12-20T04:42:37;9.30;99.90
27409;DHT22;20413;50.782;7.152;2022-12-20T04:45:03;9.40;99.90
27409;DHT22;20413;50.782;7.152;2022-12-20T04:47:29;9.40;99.90
27409;DHT22;20413;50.782;7.152;2022-12-20T04:49:54;9.40;99.90
27409;DHT22;20413;50.782;7.152;2022-12-20T04:52:23;9.40;99.90
27409;DHT22;20413;50.782;7.152;2022-12-20T04:55:08;9.40;99.90
27409;DHT22;20413;50.782;7.152;2022-12-20T04:57:34;9.40;99.90
27409;DHT22;20413;50.782;7.152;2022-12-20T04:59:59;9.30;99.90
27409;DHT22;20413;50.782;7.152;2022-12-20T05:02:25;9.30;99.90
27409;DHT22;20413;50.782;7.152;2022-12-20T05:04:50;9.20;99.90
27409;DHT22;20413;50.782;7.152;2022-12-20T05:07:16;9.20;99.90
27409;DHT22;20413;50.782;7.152;2022-12-20T05:09:41;9.20;99.90
27409;DHT22;20413;50.782;7.152;2022-12-20T05:12:10;9.30;99.90
27409;DHT22;20413;50.782;7.152;2022-12-20T05:14:35;9.30;99.90
27409;DHT22;20413;50.782;7.152;2022-12-20T05:17:01;9.30;99.90
27409;DHT22;20413;50.782;7.152;2022-12-20T05:19:26;9.20;99.90
27409;DHT22;20413;50.782;7.152;2022-12-20T05:21:52;9.20;99.90
27409;DHT22;20413;50.782;7.152;2022-12-20T05:24:39;9.30;99.90
27409;DHT22;20413;50.782;7.152;2022-12-20T05:27:23;9.30;99.90
27409;DHT22;20413;50.782;7.152;2022-12-20T05:29:49;9.20;99.90
27409;DHT22;20413;50.782;7.152;2022-12-20T05:32:14;9.20;99.90
27409;DHT22;20413;50.782;7.152;2022-12-20T05:34:43;9.20;99.90
27409;DHT22;20413;50.782;7.152;2022-12-20T05:37:08;9.20;99.90
27409;DHT22;20413;50.782;7.152;2022-12-20T05:39:34;9.20;99.90
27409;DHT22;20413;50.782;7.152;2022-12-20T05:42:03;9.30;99.90
27409;DHT22;20413;50.782;7.152;2022-12-20T05:44:28;9.20;99.90
27409;DHT22;20413;50.782;7.152;2022-12-20T05:46:54;9.20;99.90
27409;DHT22;20413;50.782;7.152;2022-12-20T05:49:19;9.30;99.90
27409;DHT22;20413;50.782;7.152;2022-12-20T05:51:45;9.30;99.90
27409;DHT22;20413;50.782;7.152;2022-12-20T05:54:11;9.40;99.90
27409;DHT22;20413;50.782;7.152;2022-12-20T05:56:39;9.30;99.90
27409;DHT22;20413;50.782;7.152;2022-12-20T05:59:04;9.20;99.90
27409;DHT22;20413;50.782;7.152;2022-12-20T06:01:30;9.10;99.90
27409;DHT22;20413;50.782;7.152;2022-12-20T06:03:59;9.10;99.90
27409;DHT22;20413;50.782;7.152;2022-12-20T06:06:24;9.00;99.90
27409;DHT22;20413;50.782;7.152;2022-12-20T06:08:50;9.10;99.90
27409;DHT22;20413;50.782;7.152;2022-12-20T06:11:19;9.10;99.90
27409;DHT22;20413;50.782;7.152;2022-12-20T06:13:45;9.20;99.90
27409;DHT22;20413;50.782;7.152;2022-12-20T06:16:10;9.20;99.90
27409;DHT22;20413;50.782;7.152;2022-12-20T06:18:36;9.30;99.90
27409;DHT22;20413;50.782;7.152;2022-12-20T06:21:01;9.30;99.90
27409;DHT22;20413;50.782;7.152;2022-12-20T06:23:27;9.40;99.90
27409;DHT22;20413;50.782;7.152;2022-12-20T06:25:53;9.40;99.90
27409;DHT22;20413;50.782;7.152;2022-12-20T06:28:18;9.30;99.90
27409;DHT22;20413;50.782;7.152;2022-12-20T06:30:53;9.20;99.90
27409;DHT22;20413;50.782;7.152;2022-12-20T06:33:19;9.30;99.90
27409;DHT22;20413;50.782;7.152;2022-12-20T06:35:45;9.30;99.90
27409;DHT22;20413;50.782;7.152;2022-12-20T06:38:10;9.30;99.90
27409;DHT22;20413;50.782;7.152;2022-12-20T06:40:36;9.40;99.90
27409;DHT22;20413;50.782;7.152;2022-12-20T06:43:02;9.40;99.90
27409;DHT22;20413;50.782;7.152;2022-12-20T06:45:28;9.40;99.90
27409;DHT22;20413;50.782;7.152;2022-12-20T06:47:53;9.40;99.90
27409;DHT22;20413;50.782;7.152;2022-12-20T06:50:19;9.40;99.90
27409;DHT22;20413;50.782;7.152;2022-12-20T06:52:44;9.20;99.90
27409;DHT22;20413;50.782;7.152;2022-12-20T06:55:10;9.20;99.90
27409;DHT22;20413;50.782;7.152;2022-12-20T06:57:35;9.20;99.90
27409;DHT22;20413;50.782;7.152;2022-12-20T07:00:02;9.20;99.90
27409;DHT22;20413;50.782;7.152;2022-12-20T07:02:27;9.20;99.90
27409;DHT22;20413;50.782;7.152;2022-12-20T07:04:53;9.30;99.90
27409;DHT22;20413;50.782;7.152;2022-12-20T07:07:18;9.40;99.90
27409;DHT22;20413;50.782;7.152;2022-12-20T07:09:44;9.40;99.90
27409;DHT22;20413;50.782;7.152;2022-12-20T07:12:10;9.40;99.90
27409;DHT22;20413;50.782;7.152;2022-12-20T07:14:36;9.50;99.90
27409;DHT22;20413;50.782;7.152;2022-12-20T07:17:03;9.50;99.90
27409;DHT22;20413;50.782;7.152;2022-12-20T07:19:28;9.50;99.90
27409;DHT22;20413;50.782;7.152;2022-12-20T07:21:54;9.60;99.90
27409;DHT22;20413;50.782;7.152;2022-12-20T07:24:20;9.50;99.90
27409;DHT22;20413;50.782;7.152;2022-12-20T07:26:46;9.50;99.90
